sensor_id;sensor_type;location;lat;lon;timestamp;P1;durP1;ratioP1;P2;durP2;ratioP2
43756;SDS011;45574;41.864;12.462;2022-10-17T00:00:55;14.68;;;8.73;;
43756;SDS011;45574;41.864;12.462;2022-10-17T00:03:41;16.63;;;8.75;;
43756;SDS011;45574;41.864;12.462;2022-10-17T00:06:28;16.95;;;8.73;;
43756;SDS011;45574;41.864;12.462;2022-10-17T00:09:14;14.38;;;8.50;;
43756;SDS011;45574;41.864;12.462;2022-10-17T00:12:00;14.57;;;8.43;;
43756;SDS011;45574;41.864;12.462;2022-10-17T00:14:47;15.88;;;8.80;;
43756;SDS011;45574;41.864;12.462;2022-10-17T00:17:34;14.38;;;8.18;;
43756;SDS011;45574;41.864;12.462;2022-10-17T00:20:20;11.57;;;8.05;;
43756;SDS011;45574;41.864;12.462;2022-10-17T00:23:06;14.50;;;7.88;;
43756;SDS011;45574;41.864;12.462;2022-10-17T00:25:56;13.60;;;9.13;;
43756;SDS011;45574;41.864;12.462;2022-10-17T00:28:47;16.08;;;8.50;;
43756;SDS011;45574;41.864;12.462;2022-10-17T00:31:34;16.17;;;8.38;;
43756;SDS011;45574;41.864;12.462;2022-10-17T00:34:21;12.63;;;8.57;;
43756;SDS011;45574;41.864;12.462;2022-10-17T00:37:08;12.43;;;8.05;;
43756;SDS011;45574;41.864;12.462;2022-10-17T00:39:54;16.25;;;8.65;;
43756;SDS011;45574;41.864;12.462;2022-10-17T00:42:41;16.00;;;8.93;;
43756;SDS011;45574;41.864;12.462;2022-10-17T00:45:29;16.25;;;8.32;;
43756;SDS011;45574;41.864;12.462;2022-10-17T00:48:16;15.77;;;8.52;;
43756;SDS011;45574;41.864;12.462;2022-10-17T00:51:03;12.90;;;8.43;;
43756;SDS011;45574;41.864;12.462;2022-10-17T00:53:52;13.73;;;8.57;;
43756;SDS011;45574;41.864;12.462;2022-10-17T00:56:38;16.80;;;8.18;;
43756;SDS011;45574;41.864;12.462;2022-10-17T00:59:25;16.08;;;8.82;;
43756;SDS011;45574;41.864;12.462;2022-10-17T01:02:14;15.73;;;8.95;;
43756;SDS011;45574;41.864;12.462;2022-10-17T01:05:03;14.85;;;8.65;;
43756;SDS011;45574;41.864;12.462;2022-10-17T01:07:54;13.25;;;8.90;;
43756;SDS011;45574;41.864;12.462;2022-10-17T01:13:37;15.80;;;8.30;;
43756;SDS011;45574;41.864;12.462;2022-10-17T01:16:44;14.80;;;9.13;;
43756;SDS011;45574;41.864;12.462;2022-10-17T01:32:48;11.98;;;8.35;;
43756;SDS011;45574;41.864;12.462;2022-10-17T01:36:02;17.38;;;8.95;;
43756;SDS011;45574;41.864;12.462;2022-10-17T01:42:50;16.67;;;9.27;;
43756;SDS011;45574;41.864;12.462;2022-10-17T01:48:12;13.38;;;9.23;;
43756;SDS011;45574;41.864;12.462;2022-10-17T01:51:11;12.48;;;8.32;;
43756;SDS011;45574;41.864;12.462;2022-10-17T01:54:03;14.45;;;8.68;;
43756;SDS011;45574;41.864;12.462;2022-10-17T01:57:00;16.08;;;9.20;;
43756;SDS011;45574;41.864;12.462;2022-10-17T01:59:51;17.67;;;8.32;;
43756;SDS011;45574;41.864;12.462;2022-10-17T02:02:40;15.35;;;9.07;;
43756;SDS011;45574;41.864;12.462;2022-10-17T02:05:31;15.32;;;8.63;;
43756;SDS011;45574;41.864;12.462;2022-10-17T02:08:26;15.23;;;8.68;;
43756;SDS011;45574;41.864;12.462;2022-10-17T02:11:19;12.68;;;8.43;;
43756;SDS011;45574;41.864;12.462;2022-10-17T02:23:02;15.50;;;9.35;;
43756;SDS011;45574;41.864;12.462;2022-10-17T02:29:09;12.73;;;9.45;;
43756;SDS011;45574;41.864;12.462;2022-10-17T02:32:07;16.60;;;9.25;;
43756;SDS011;45574;41.864;12.462;2022-10-17T02:35:00;12.77;;;9.30;;
43756;SDS011;45574;41.864;12.462;2022-10-17T02:37:48;19.92;;;8.93;;
43756;SDS011;45574;41.864;12.462;2022-10-17T02:40:36;15.70;;;8.65;;
43756;SDS011;45574;41.864;12.462;2022-10-17T02:43:25;15.60;;;9.65;;
43756;SDS011;45574;41.864;12.462;2022-10-17T02:46:14;17.48;;;9.50;;
43756;SDS011;45574;41.864;12.462;2022-10-17T02:49:20;14.80;;;9.18;;
43756;SDS011;45574;41.864;12.462;2022-10-17T02:55:30;20.40;;;9.15;;
43756;SDS011;45574;41.864;12.462;2022-10-17T02:58:20;16.40;;;9.18;;
43756;SDS011;45574;41.864;12.462;2022-10-17T03:01:12;15.40;;;9.63;;
43756;SDS011;45574;41.864;12.462;2022-10-17T03:04:05;18.52;;;9.88;;
43756;SDS011;45574;41.864;12.462;2022-10-17T03:06:57;21.38;;;9.52;;
43756;SDS011;45574;41.864;12.462;2022-10-17T03:09:43;13.65;;;9.15;;
43756;SDS011;45574;41.864;12.462;2022-10-17T03:12:30;16.00;;;9.30;;
43756;SDS011;45574;41.864;12.462;2022-10-17T03:15:17;20.02;;;9.25;;
43756;SDS011;45574;41.864;12.462;2022-10-17T03:18:03;13.38;;;9.45;;
43756;SDS011;45574;41.864;12.462;2022-10-17T03:20:50;13.82;;;9.65;;
43756;SDS011;45574;41.864;12.462;2022-10-17T03:23:36;15.68;;;9.57;;
43756;SDS011;45574;41.864;12.462;2022-10-17T03:26:24;15.35;;;8.85;;
43756;SDS011;45574;41.864;12.462;2022-10-17T03:29:12;15.43;;;9.13;;
43756;SDS011;45574;41.864;12.462;2022-10-17T03:31:59;13.77;;;9.10;;
43756;SDS011;45574;41.864;12.462;2022-10-17T03:34:45;14.02;;;9.18;;
43756;SDS011;45574;41.864;12.462;2022-10-17T03:37:31;13.02;;;8.75;;
43756;SDS011;45574;41.864;12.462;2022-10-17T03:40:18;14.52;;;8.40;;
43756;SDS011;45574;41.864;12.462;2022-10-17T03:43:05;14.57;;;8.88;;
43756;SDS011;45574;41.864;12.462;2022-10-17T03:45:51;17.23;;;8.65;;
43756;SDS011;45574;41.864;12.462;2022-10-17T03:48:38;17.23;;;8.98;;
43756;SDS011;45574;41.864;12.462;2022-10-17T03:51:26;14.70;;;9.00;;
43756;SDS011;45574;41.864;12.462;2022-10-17T03:54:19;15.65;;;9.27;;
43756;SDS011;45574;41.864;12.462;2022-10-17T03:57:06;14.65;;;8.98;;
43756;SDS011;45574;41.864;12.462;2022-10-17T03:59:52;16.40;;;9.55;;
43756;SDS011;45574;41.864;12.462;2022-10-17T04:02:40;16.15;;;9.48;;
43756;SDS011;45574;41.864;12.462;2022-10-17T04:05:30;14.70;;;9.23;;
43756;SDS011;45574;41.864;12.462;2022-10-17T04:08:17;12.63;;;9.23;;
43756;SDS011;45574;41.864;12.462;2022-10-17T04:11:24;19.73;;;9.60;;
43756;SDS011;45574;41.864;12.462;2022-10-17T04:14:12;17.45;;;9.57;;
43756;SDS011;45574;41.864;12.462;2022-10-17T04:17:00;18.15;;;9.70;;
43756;SDS011;45574;41.864;12.462;2022-10-17T04:19:48;15.20;;;9.27;;
43756;SDS011;45574;41.864;12.462;2022-10-17T04:22:36;18.58;;;9.45;;
43756;SDS011;45574;41.864;12.462;2022-10-17T04:25:23;17.92;;;9.52;;
43756;SDS011;45574;41.864;12.462;2022-10-17T04:28:11;14.30;;;9.20;;
43756;SDS011;45574;41.864;12.462;2022-10-17T04:31:02;18.50;;;9.73;;
43756;SDS011;45574;41.864;12.462;2022-10-17T04:33:56;13.65;;;9.15;;
43756;SDS011;45574;41.864;12.462;2022-10-17T04:36:42;19.00;;;9.75;;
43756;SDS011;45574;41.864;12.462;2022-10-17T04:39:29;17.58;;;9.25;;
43756;SDS011;45574;41.864;12.462;2022-10-17T04:42:17;14.02;;;9.15;;
43756;SDS011;45574;41.864;12.462;2022-10-17T04:45:04;16.10;;;9.85;;
43756;SDS011;45574;41.864;12.462;2022-10-17T04:47:51;17.42;;;9.13;;
43756;SDS011;45574;41.864;12.462;2022-10-17T04:50:37;13.35;;;9.55;;
43756;SDS011;45574;41.864;12.462;2022-10-17T04:53:43;16.23;;;9.80;;
43756;SDS011;45574;41.864;12.462;2022-10-17T04:56:30;16.02;;;10.40;;
43756;SDS011;45574;41.864;12.462;2022-10-17T04:59:17;15.05;;;9.75;;
43756;SDS011;45574;41.864;12.462;2022-10-17T05:02:05;14.80;;;10.15;;
43756;SDS011;45574;41.864;12.462;2022-10-17T05:04:53;15.85;;;10.27;;
43756;SDS011;45574;41.864;12.462;2022-10-17T05:07:40;27.88;;;10.70;;
43756;SDS011;45574;41.864;12.462;2022-10-17T05:10:37;16.98;;;10.18;;
43756;SDS011;45574;41.864;12.462;2022-10-17T05:13:28;15.93;;;10.48;;
43756;SDS011;45574;41.864;12.462;2022-10-17T05:16:16;15.95;;;10.27;;
43756;SDS011;45574;41.864;12.462;2022-10-17T05:19:02;14.05;;;9.80;;
43756;SDS011;45574;41.864;12.462;2022-10-17T05:21:55;15.82;;;10.75;;
43756;SDS011;45574;41.864;12.462;2022-10-17T05:24:42;21.85;;;11.27;;
43756;SDS011;45574;41.864;12.462;2022-10-17T05:27:29;18.02;;;9.85;;
43756;SDS011;45574;41.864;12.462;2022-10-17T05:30:16;16.73;;;10.70;;
43756;SDS011;45574;41.864;12.462;2022-10-17T05:33:03;14.88;;;10.18;;
43756;SDS011;45574;41.864;12.462;2022-10-17T05:35:51;20.77;;;11.35;;
43756;SDS011;45574;41.864;12.462;2022-10-17T05:38:37;19.30;;;11.30;;
43756;SDS011;45574;41.864;12.462;2022-10-17T05:41:25;18.85;;;10.60;;
43756;SDS011;45574;41.864;12.462;2022-10-17T05:44:12;16.95;;;10.45;;
43756;SDS011;45574;41.864;12.462;2022-10-17T05:47:06;19.45;;;10.35;;
43756;SDS011;45574;41.864;12.462;2022-10-17T05:49:53;17.58;;;10.20;;
43756;SDS011;45574;41.864;12.462;2022-10-17T05:52:46;19.77;;;10.48;;
43756;SDS011;45574;41.864;12.462;2022-10-17T05:55:35;14.98;;;10.00;;
43756;SDS011;45574;41.864;12.462;2022-10-17T05:58:21;16.33;;;10.40;;
43756;SDS011;45574;41.864;12.462;2022-10-17T06:01:09;18.60;;;11.40;;
43756;SDS011;45574;41.864;12.462;2022-10-17T06:03:57;34.40;;;21.98;;
43756;SDS011;45574;41.864;12.462;2022-10-17T06:06:44;26.45;;;14.30;;
43756;SDS011;45574;41.864;12.462;2022-10-17T06:09:31;19.55;;;10.52;;
43756;SDS011;45574;41.864;12.462;2022-10-17T06:12:18;22.55;;;10.32;;
43756;SDS011;45574;41.864;12.462;2022-10-17T06:15:05;16.73;;;9.23;;
43756;SDS011;45574;41.864;12.462;2022-10-17T06:17:53;15.10;;;9.93;;
43756;SDS011;45574;41.864;12.462;2022-10-17T06:20:40;14.55;;;9.07;;
43756;SDS011;45574;41.864;12.462;2022-10-17T06:23:26;18.88;;;9.90;;
43756;SDS011;45574;41.864;12.462;2022-10-17T06:26:22;16.65;;;9.27;;
43756;SDS011;45574;41.864;12.462;2022-10-17T06:29:09;23.33;;;8.63;;
43756;SDS011;45574;41.864;12.462;2022-10-17T06:32:02;15.32;;;9.75;;
43756;SDS011;45574;41.864;12.462;2022-10-17T06:34:50;18.00;;;9.85;;
43756;SDS011;45574;41.864;12.462;2022-10-17T06:37:37;19.05;;;8.82;;
43756;SDS011;45574;41.864;12.462;2022-10-17T06:40:27;15.80;;;9.00;;
43756;SDS011;45574;41.864;12.462;2022-10-17T06:43:15;23.42;;;13.98;;
43756;SDS011;45574;41.864;12.462;2022-10-17T06:49:14;22.58;;;9.93;;
43756;SDS011;45574;41.864;12.462;2022-10-17T06:52:30;16.48;;;7.55;;
43756;SDS011;45574;41.864;12.462;2022-10-17T06:55:36;17.92;;;7.75;;
43756;SDS011;45574;41.864;12.462;2022-10-17T06:58:35;14.90;;;8.57;;
43756;SDS011;45574;41.864;12.462;2022-10-17T07:01:48;13.25;;;8.18;;
43756;SDS011;45574;41.864;12.462;2022-10-17T07:04:35;17.40;;;7.97;;
43756;SDS011;45574;41.864;12.462;2022-10-17T07:07:22;13.82;;;7.75;;
43756;SDS011;45574;41.864;12.462;2022-10-17T07:10:08;20.92;;;8.38;;
43756;SDS011;45574;41.864;12.462;2022-10-17T07:12:56;14.55;;;7.82;;
43756;SDS011;45574;41.864;12.462;2022-10-17T07:15:43;18.02;;;8.40;;
43756;SDS011;45574;41.864;12.462;2022-10-17T07:18:29;17.30;;;7.80;;
43756;SDS011;45574;41.864;12.462;2022-10-17T07:21:16;12.40;;;8.13;;
43756;SDS011;45574;41.864;12.462;2022-10-17T07:24:03;14.63;;;7.40;;
43756;SDS011;45574;41.864;12.462;2022-10-17T07:26:52;9.35;;;6.70;;
43756;SDS011;45574;41.864;12.462;2022-10-17T07:29:39;13.20;;;7.55;;
43756;SDS011;45574;41.864;12.462;2022-10-17T07:32:33;16.00;;;7.53;;
43756;SDS011;45574;41.864;12.462;2022-10-17T07:35:19;13.63;;;7.00;;
43756;SDS011;45574;41.864;12.462;2022-10-17T07:38:07;14.50;;;7.45;;
43756;SDS011;45574;41.864;12.462;2022-10-17T07:40:58;14.48;;;7.28;;
43756;SDS011;45574;41.864;12.462;2022-10-17T07:43:48;12.98;;;6.97;;
43756;SDS011;45574;41.864;12.462;2022-10-17T07:46:38;12.77;;;6.75;;
43756;SDS011;45574;41.864;12.462;2022-10-17T07:49:25;11.98;;;7.20;;
43756;SDS011;45574;41.864;12.462;2022-10-17T07:52:11;13.23;;;7.95;;
43756;SDS011;45574;41.864;12.462;2022-10-17T07:54:59;14.07;;;7.35;;
43756;SDS011;45574;41.864;12.462;2022-10-17T07:57:45;16.15;;;6.78;;
43756;SDS011;45574;41.864;12.462;2022-10-17T08:00:32;15.43;;;7.45;;
43756;SDS011;45574;41.864;12.462;2022-10-17T08:03:18;12.40;;;6.90;;
43756;SDS011;45574;41.864;12.462;2022-10-17T08:06:05;11.82;;;7.15;;
43756;SDS011;45574;41.864;12.462;2022-10-17T08:08:51;14.25;;;7.25;;
43756;SDS011;45574;41.864;12.462;2022-10-17T08:11:37;16.52;;;7.50;;
43756;SDS011;45574;41.864;12.462;2022-10-17T08:14:24;14.75;;;7.70;;
43756;SDS011;45574;41.864;12.462;2022-10-17T08:17:10;16.35;;;7.35;;
43756;SDS011;45574;41.864;12.462;2022-10-17T08:19:57;13.70;;;7.10;;
43756;SDS011;45574;41.864;12.462;2022-10-17T08:22:46;17.48;;;7.05;;
43756;SDS011;45574;41.864;12.462;2022-10-17T08:25:37;12.88;;;7.13;;
43756;SDS011;45574;41.864;12.462;2022-10-17T08:28:24;20.15;;;7.18;;
43756;SDS011;45574;41.864;12.462;2022-10-17T08:31:12;12.00;;;6.88;;
43756;SDS011;45574;41.864;12.462;2022-10-17T08:34:03;11.90;;;7.55;;
43756;SDS011;45574;41.864;12.462;2022-10-17T08:36:50;11.35;;;7.18;;
43756;SDS011;45574;41.864;12.462;2022-10-17T08:39:36;14.48;;;7.43;;
43756;SDS011;45574;41.864;12.462;2022-10-17T08:48:07;14.38;;;6.68;;
43756;SDS011;45574;41.864;12.462;2022-10-17T08:51:17;15.73;;;7.25;;
43756;SDS011;45574;41.864;12.462;2022-10-17T08:54:18;16.10;;;7.50;;
43756;SDS011;45574;41.864;12.462;2022-10-17T08:57:11;14.45;;;6.68;;
43756;SDS011;45574;41.864;12.462;2022-10-17T09:00:00;17.02;;;7.20;;
43756;SDS011;45574;41.864;12.462;2022-10-17T09:06:11;11.35;;;6.43;;
43756;SDS011;45574;41.864;12.462;2022-10-17T09:12:15;12.93;;;6.95;;
43756;SDS011;45574;41.864;12.462;2022-10-17T09:18:19;19.08;;;7.30;;
43756;SDS011;45574;41.864;12.462;2022-10-17T09:21:24;9.65;;;6.85;;
43756;SDS011;45574;41.864;12.462;2022-10-17T09:24:31;10.93;;;6.68;;
43756;SDS011;45574;41.864;12.462;2022-10-17T09:27:41;9.38;;;6.63;;
43756;SDS011;45574;41.864;12.462;2022-10-17T09:30:51;9.23;;;6.68;;
43756;SDS011;45574;41.864;12.462;2022-10-17T09:33:42;12.68;;;6.55;;
43756;SDS011;45574;41.864;12.462;2022-10-17T09:36:32;10.57;;;7.50;;
43756;SDS011;45574;41.864;12.462;2022-10-17T09:39:22;11.00;;;7.38;;
43756;SDS011;45574;41.864;12.462;2022-10-17T09:45:13;9.90;;;6.53;;
43756;SDS011;45574;41.864;12.462;2022-10-17T09:48:13;10.05;;;6.80;;
43756;SDS011;45574;41.864;12.462;2022-10-17T09:51:12;10.77;;;6.80;;
43756;SDS011;45574;41.864;12.462;2022-10-17T09:54:00;13.02;;;6.47;;
43756;SDS011;45574;41.864;12.462;2022-10-17T09:57:03;18.40;;;7.93;;
43756;SDS011;45574;41.864;12.462;2022-10-17T10:00:01;11.95;;;5.95;;
43756;SDS011;45574;41.864;12.462;2022-10-17T10:05:59;10.93;;;7.18;;
43756;SDS011;45574;41.864;12.462;2022-10-17T10:08:50;11.13;;;7.20;;
43756;SDS011;45574;41.864;12.462;2022-10-17T10:11:51;12.43;;;6.10;;
43756;SDS011;45574;41.864;12.462;2022-10-17T10:14:40;12.02;;;6.57;;
43756;SDS011;45574;41.864;12.462;2022-10-17T10:17:36;13.48;;;6.75;;
43756;SDS011;45574;41.864;12.462;2022-10-17T10:20:28;12.05;;;7.68;;
43756;SDS011;45574;41.864;12.462;2022-10-17T10:23:19;13.43;;;7.40;;
43756;SDS011;45574;41.864;12.462;2022-10-17T10:26:23;12.70;;;6.93;;
43756;SDS011;45574;41.864;12.462;2022-10-17T10:29:31;14.63;;;7.00;;
43756;SDS011;45574;41.864;12.462;2022-10-17T10:38:08;11.45;;;6.57;;
43756;SDS011;45574;41.864;12.462;2022-10-17T10:41:03;11.10;;;6.32;;
43756;SDS011;45574;41.864;12.462;2022-10-17T10:43:52;9.38;;;5.68;;
43756;SDS011;45574;41.864;12.462;2022-10-17T10:46:47;13.40;;;6.47;;
43756;SDS011;45574;41.864;12.462;2022-10-17T10:49:34;16.55;;;6.85;;
43756;SDS011;45574;41.864;12.462;2022-10-17T10:52:26;10.25;;;5.78;;
43756;SDS011;45574;41.864;12.462;2022-10-17T10:55:35;10.05;;;6.82;;
43756;SDS011;45574;41.864;12.462;2022-10-17T11:13:22;9.02;;;6.70;;
43756;SDS011;45574;41.864;12.462;2022-10-17T11:16:27;9.95;;;6.15;;
43756;SDS011;45574;41.864;12.462;2022-10-17T11:22:25;12.95;;;6.68;;
43756;SDS011;45574;41.864;12.462;2022-10-17T11:25:31;9.48;;;6.55;;
43756;SDS011;45574;41.864;12.462;2022-10-17T11:28:22;15.45;;;7.15;;
43756;SDS011;45574;41.864;12.462;2022-10-17T11:31:13;7.63;;;6.38;;
43756;SDS011;45574;41.864;12.462;2022-10-17T11:34:04;12.00;;;7.57;;
43756;SDS011;45574;41.864;12.462;2022-10-17T11:37:06;10.38;;;6.82;;
43756;SDS011;45574;41.864;12.462;2022-10-17T11:40:02;7.65;;;6.20;;
43756;SDS011;45574;41.864;12.462;2022-10-17T11:43:00;8.50;;;5.85;;
43756;SDS011;45574;41.864;12.462;2022-10-17T11:45:52;12.55;;;6.70;;
43756;SDS011;45574;41.864;12.462;2022-10-17T11:49:01;9.82;;;6.65;;
43756;SDS011;45574;41.864;12.462;2022-10-17T11:55:28;7.82;;;6.68;;
43756;SDS011;45574;41.864;12.462;2022-10-17T12:07:35;7.65;;;6.32;;
43756;SDS011;45574;41.864;12.462;2022-10-17T12:13:49;7.82;;;5.68;;
43756;SDS011;45574;41.864;12.462;2022-10-17T12:16:38;10.47;;;6.77;;
43756;SDS011;45574;41.864;12.462;2022-10-17T12:19:35;10.55;;;6.40;;
43756;SDS011;45574;41.864;12.462;2022-10-17T12:22:25;9.57;;;6.38;;
43756;SDS011;45574;41.864;12.462;2022-10-17T12:25:15;7.15;;;5.97;;
43756;SDS011;45574;41.864;12.462;2022-10-17T12:30:56;12.23;;;6.90;;
43756;SDS011;45574;41.864;12.462;2022-10-17T12:33:55;8.25;;;6.15;;
43756;SDS011;45574;41.864;12.462;2022-10-17T12:36:48;7.88;;;5.80;;
43756;SDS011;45574;41.864;12.462;2022-10-17T12:42:28;11.32;;;6.43;;
43756;SDS011;45574;41.864;12.462;2022-10-17T12:55:17;9.27;;;6.80;;
43756;SDS011;45574;41.864;12.462;2022-10-17T12:58:05;11.45;;;6.38;;
43756;SDS011;45574;41.864;12.462;2022-10-17T13:01:08;6.75;;;6.05;;
43756;SDS011;45574;41.864;12.462;2022-10-17T13:04:03;10.85;;;6.35;;
43756;SDS011;45574;41.864;12.462;2022-10-17T13:06:53;12.20;;;6.15;;
43756;SDS011;45574;41.864;12.462;2022-10-17T13:09:42;7.18;;;6.15;;
43756;SDS011;45574;41.864;12.462;2022-10-17T13:12:30;9.18;;;6.82;;
43756;SDS011;45574;41.864;12.462;2022-10-17T13:15:22;11.85;;;6.10;;
43756;SDS011;45574;41.864;12.462;2022-10-17T13:18:12;11.18;;;5.95;;
43756;SDS011;45574;41.864;12.462;2022-10-17T13:21:05;10.23;;;6.70;;
43756;SDS011;45574;41.864;12.462;2022-10-17T13:23:59;7.45;;;6.60;;
43756;SDS011;45574;41.864;12.462;2022-10-17T13:26:46;11.10;;;6.82;;
43756;SDS011;45574;41.864;12.462;2022-10-17T13:29:32;7.93;;;6.43;;
43756;SDS011;45574;41.864;12.462;2022-10-17T13:32:18;6.72;;;6.03;;
43756;SDS011;45574;41.864;12.462;2022-10-17T13:35:12;10.80;;;6.13;;
43756;SDS011;45574;41.864;12.462;2022-10-17T13:38:03;8.07;;;5.43;;
43756;SDS011;45574;41.864;12.462;2022-10-17T13:40:52;6.88;;;5.93;;
43756;SDS011;45574;41.864;12.462;2022-10-17T13:43:39;6.82;;;6.20;;
43756;SDS011;45574;41.864;12.462;2022-10-17T13:46:27;14.32;;;5.70;;
43756;SDS011;45574;41.864;12.462;2022-10-17T13:52:36;8.90;;;5.40;;
43756;SDS011;45574;41.864;12.462;2022-10-17T13:55:23;9.43;;;6.00;;
43756;SDS011;45574;41.864;12.462;2022-10-17T13:58:16;7.30;;;5.93;;
43756;SDS011;45574;41.864;12.462;2022-10-17T14:01:03;11.50;;;5.78;;
43756;SDS011;45574;41.864;12.462;2022-10-17T14:03:50;8.90;;;5.65;;
43756;SDS011;45574;41.864;12.462;2022-10-17T14:06:41;8.70;;;5.85;;
43756;SDS011;45574;41.864;12.462;2022-10-17T14:09:30;6.10;;;5.50;;
43756;SDS011;45574;41.864;12.462;2022-10-17T14:12:18;7.53;;;5.97;;
43756;SDS011;45574;41.864;12.462;2022-10-17T14:15:06;8.32;;;5.53;;
43756;SDS011;45574;41.864;12.462;2022-10-17T14:17:59;7.07;;;6.22;;
43756;SDS011;45574;41.864;12.462;2022-10-17T14:20:50;8.07;;;6.03;;
43756;SDS011;45574;41.864;12.462;2022-10-17T14:26:28;6.57;;;5.20;;
43756;SDS011;45574;41.864;12.462;2022-10-17T14:32:13;9.25;;;6.20;;
43756;SDS011;45574;41.864;12.462;2022-10-17T14:35:01;7.38;;;6.20;;
43756;SDS011;45574;41.864;12.462;2022-10-17T14:37:50;8.52;;;5.72;;
43756;SDS011;45574;41.864;12.462;2022-10-17T14:40:42;8.95;;;6.35;;
43756;SDS011;45574;41.864;12.462;2022-10-17T14:43:36;9.07;;;6.40;;
43756;SDS011;45574;41.864;12.462;2022-10-17T14:46:22;13.68;;;6.53;;
43756;SDS011;45574;41.864;12.462;2022-10-17T14:49:16;11.82;;;6.53;;
43756;SDS011;45574;41.864;12.462;2022-10-17T14:54:55;7.88;;;6.10;;
43756;SDS011;45574;41.864;12.462;2022-10-17T14:57:44;8.27;;;6.88;;
43756;SDS011;45574;41.864;12.462;2022-10-17T15:00:31;13.20;;;7.53;;
43756;SDS011;45574;41.864;12.462;2022-10-17T15:03:17;12.90;;;8.57;;
43756;SDS011;45574;41.864;12.462;2022-10-17T15:09:02;17.10;;;9.82;;
43756;SDS011;45574;41.864;12.462;2022-10-17T15:11:49;14.55;;;9.63;;
43756;SDS011;45574;41.864;12.462;2022-10-17T15:14:35;13.93;;;11.93;;
43756;SDS011;45574;41.864;12.462;2022-10-17T15:17:23;14.48;;;10.13;;
43756;SDS011;45574;41.864;12.462;2022-10-17T15:20:13;10.15;;;8.02;;
43756;SDS011;45574;41.864;12.462;2022-10-17T15:23:02;9.02;;;7.65;;
43756;SDS011;45574;41.864;12.462;2022-10-17T15:25:48;11.73;;;8.63;;
43756;SDS011;45574;41.864;12.462;2022-10-17T15:28:35;10.60;;;8.95;;
43756;SDS011;45574;41.864;12.462;2022-10-17T15:31:22;11.60;;;7.55;;
43756;SDS011;45574;41.864;12.462;2022-10-17T15:34:10;12.27;;;7.40;;
43756;SDS011;45574;41.864;12.462;2022-10-17T15:37:00;10.60;;;7.15;;
43756;SDS011;45574;41.864;12.462;2022-10-17T15:39:47;12.82;;;7.47;;
43756;SDS011;45574;41.864;12.462;2022-10-17T15:42:37;11.48;;;7.47;;
43756;SDS011;45574;41.864;12.462;2022-10-17T15:45:31;13.57;;;8.48;;
43756;SDS011;45574;41.864;12.462;2022-10-17T15:48:21;8.45;;;7.50;;
43756;SDS011;45574;41.864;12.462;2022-10-17T15:51:20;12.70;;;8.05;;
43756;SDS011;45574;41.864;12.462;2022-10-17T15:54:07;9.63;;;7.60;;
43756;SDS011;45574;41.864;12.462;2022-10-17T15:56:53;17.85;;;8.65;;
43756;SDS011;45574;41.864;12.462;2022-10-17T15:59:43;10.95;;;8.30;;
43756;SDS011;45574;41.864;12.462;2022-10-17T16:02:31;13.68;;;9.05;;
43756;SDS011;45574;41.864;12.462;2022-10-17T16:05:22;15.70;;;9.45;;
43756;SDS011;45574;41.864;12.462;2022-10-17T16:08:13;14.55;;;9.60;;
43756;SDS011;45574;41.864;12.462;2022-10-17T16:11:00;15.02;;;9.30;;
43756;SDS011;45574;41.864;12.462;2022-10-17T16:13:48;13.75;;;8.95;;
43756;SDS011;45574;41.864;12.462;2022-10-17T16:16:37;14.95;;;9.27;;
43756;SDS011;45574;41.864;12.462;2022-10-17T16:19:24;15.00;;;9.77;;
43756;SDS011;45574;41.864;12.462;2022-10-17T16:22:26;14.75;;;9.57;;
43756;SDS011;45574;41.864;12.462;2022-10-17T16:25:22;15.85;;;11.02;;
43756;SDS011;45574;41.864;12.462;2022-10-17T16:28:10;16.02;;;10.35;;
43756;SDS011;45574;41.864;12.462;2022-10-17T16:30:57;14.80;;;10.10;;
43756;SDS011;45574;41.864;12.462;2022-10-17T16:33:43;16.92;;;11.13;;
43756;SDS011;45574;41.864;12.462;2022-10-17T16:36:30;18.30;;;10.27;;
43756;SDS011;45574;41.864;12.462;2022-10-17T16:39:17;13.77;;;9.52;;
43756;SDS011;45574;41.864;12.462;2022-10-17T16:42:03;22.45;;;10.60;;
43756;SDS011;45574;41.864;12.462;2022-10-17T16:44:49;14.48;;;10.18;;
43756;SDS011;45574;41.864;12.462;2022-10-17T16:47:36;15.65;;;9.95;;
43756;SDS011;45574;41.864;12.462;2022-10-17T16:50:22;15.30;;;10.18;;
43756;SDS011;45574;41.864;12.462;2022-10-17T16:53:09;14.20;;;10.25;;
43756;SDS011;45574;41.864;12.462;2022-10-17T16:55:59;15.40;;;9.77;;
43756;SDS011;45574;41.864;12.462;2022-10-17T17:01:35;13.43;;;9.23;;
43756;SDS011;45574;41.864;12.462;2022-10-17T17:04:23;16.90;;;9.70;;
43756;SDS011;45574;41.864;12.462;2022-10-17T17:07:09;16.83;;;9.70;;
43756;SDS011;45574;41.864;12.462;2022-10-17T17:10:20;17.85;;;9.40;;
43756;SDS011;45574;41.864;12.462;2022-10-17T17:13:07;15.05;;;9.05;;
43756;SDS011;45574;41.864;12.462;2022-10-17T17:19:10;13.05;;;8.82;;
43756;SDS011;45574;41.864;12.462;2022-10-17T17:21:58;15.05;;;9.43;;
43756;SDS011;45574;41.864;12.462;2022-10-17T17:24:47;15.75;;;8.45;;
43756;SDS011;45574;41.864;12.462;2022-10-17T17:27:34;17.38;;;8.85;;
43756;SDS011;45574;41.864;12.462;2022-10-17T17:30:20;14.18;;;8.27;;
43756;SDS011;45574;41.864;12.462;2022-10-17T17:33:07;18.08;;;10.30;;
43756;SDS011;45574;41.864;12.462;2022-10-17T17:35:54;13.57;;;9.80;;
43756;SDS011;45574;41.864;12.462;2022-10-17T17:38:45;14.82;;;9.95;;
43756;SDS011;45574;41.864;12.462;2022-10-17T17:41:32;13.10;;;9.60;;
43756;SDS011;45574;41.864;12.462;2022-10-17T17:44:20;12.52;;;9.80;;
43756;SDS011;45574;41.864;12.462;2022-10-17T17:47:06;12.35;;;9.82;;
43756;SDS011;45574;41.864;12.462;2022-10-17T17:49:53;14.07;;;10.65;;
43756;SDS011;45574;41.864;12.462;2022-10-17T17:52:39;15.38;;;9.88;;
43756;SDS011;45574;41.864;12.462;2022-10-17T17:55:31;15.50;;;10.18;;
43756;SDS011;45574;41.864;12.462;2022-10-17T17:58:19;14.13;;;10.27;;
43756;SDS011;45574;41.864;12.462;2022-10-17T18:01:11;17.10;;;10.20;;
43756;SDS011;45574;41.864;12.462;2022-10-17T18:04:05;20.92;;;10.50;;
43756;SDS011;45574;41.864;12.462;2022-10-17T18:06:53;17.75;;;10.85;;
43756;SDS011;45574;41.864;12.462;2022-10-17T18:09:40;18.42;;;11.90;;
43756;SDS011;45574;41.864;12.462;2022-10-17T18:12:26;17.00;;;12.48;;
43756;SDS011;45574;41.864;12.462;2022-10-17T18:15:14;19.20;;;13.70;;
43756;SDS011;45574;41.864;12.462;2022-10-17T18:18:03;19.60;;;14.13;;
43756;SDS011;45574;41.864;12.462;2022-10-17T18:20:52;20.23;;;14.75;;
43756;SDS011;45574;41.864;12.462;2022-10-17T18:23:40;26.42;;;14.82;;
43756;SDS011;45574;41.864;12.462;2022-10-17T18:26:30;25.30;;;14.88;;
43756;SDS011;45574;41.864;12.462;2022-10-17T18:29:17;24.13;;;14.63;;
43756;SDS011;45574;41.864;12.462;2022-10-17T18:32:04;18.88;;;13.90;;
43756;SDS011;45574;41.864;12.462;2022-10-17T18:34:50;27.98;;;15.10;;
43756;SDS011;45574;41.864;12.462;2022-10-17T18:37:40;20.50;;;13.85;;
43756;SDS011;45574;41.864;12.462;2022-10-17T18:40:26;22.83;;;14.48;;
43756;SDS011;45574;41.864;12.462;2022-10-17T18:43:13;19.10;;;14.00;;
43756;SDS011;45574;41.864;12.462;2022-10-17T18:46:03;21.73;;;14.30;;
43756;SDS011;45574;41.864;12.462;2022-10-17T18:48:50;24.77;;;14.47;;
43756;SDS011;45574;41.864;12.462;2022-10-17T18:51:46;19.95;;;14.77;;
43756;SDS011;45574;41.864;12.462;2022-10-17T18:54:33;22.65;;;14.40;;